Time;durP1;ratioP1;P1;durP2;ratioP2;P2;SDS_P1;SDS_P2;PMS_P1;PMS_P2;Temp;Humidity;BMP_temperature;BMP_pressure;BME280_temperature;BME280_humidity;BME280_pressure;Samples;Min_cycle;Max_cycle;Signal;HPM_P1;HPM_P2
2023/12/02 00:00:04;;;;;;;16.60;12.65;;;0.30;52.20;;;;;;5032870;28;20034;-75
2023/12/02 00:02:37;;;;;;;17.75;13.43;;;0.30;52.20;;;;;;5024656;28;20356;-76
2023/12/02 00:05:04;;;;;;;16.02;12.32;;;0.20;52.00;;;;;;5023877;28;20417;-75
2023/12/02 00:07:29;;;;;;;16.40;12.38;;;0.20;52.00;;;;;;5024106;28;20029;-75
2023/12/02 00:09:55;;;;;;;16.95;13.27;;;0.20;52.10;;;;;;5014853;28;20467;-75
2023/12/02 00:12:21;;;;;;;15.13;12.00;;;0.20;52.10;;;;;;5031577;28;20033;-74
2023/12/02 00:14:48;;;;;;;16.13;13.02;;;0.20;52.10;;;;;;5031040;28;20357;-76
2023/12/02 00:17:14;;;;;;;16.10;12.07;;;0.10;51.90;;;;;;5028728;28;20045;-76
2023/12/02 00:19:41;;;;;;;15.95;11.73;;;0.10;51.90;;;;;;5023984;28;20029;-76
2023/12/02 00:22:06;;;;;;;19.45;13.82;;;0.10;51.90;;;;;;5020132;28;20438;-76
2023/12/02 00:24:38;;;;;;;18.48;13.35;;;0.10;51.90;;;;;;5029124;28;20037;-76
2023/12/02 00:27:05;;;;;;;16.35;12.98;;;0.10;51.90;;;;;;5025250;28;20282;-76
2023/12/02 00:29:31;;;;;;;15.70;12.25;;;0.00;51.80;;;;;;5030172;28;20082;-74
2023/12/02 00:31:57;;;;;;;15.50;12.30;;;0.10;52.00;;;;;;5016210;28;20583;-75
2023/12/02 00:34:23;;;;;;;16.30;12.38;;;0.00;51.80;;;;;;5028589;28;20025;-74
2023/12/02 00:36:50;;;;;;;18.27;11.60;;;0.00;51.80;;;;;;5023872;28;20041;-76
2023/12/02 00:39:16;;;;;;;15.45;12.20;;;0.00;51.80;;;;;;5026958;28;20059;-76
2023/12/02 00:41:45;;;;;;;20.73;13.50;;;0.00;51.80;;;;;;5011381;28;20571;-76
2023/12/02 00:44:11;;;;;;;15.23;11.55;;;0.00;51.90;;;;;;5017065;28;20030;-76
2023/12/02 00:46:37;;;;;;;15.10;11.77;;;0.00;51.90;;;;;;5023807;28;20036;-76
2023/12/02 00:49:03;;;;;;;15.82;12.65;;;0.00;51.90;;;;;;5014747;28;20021;-76
2023/12/02 00:51:29;;;;;;;15.25;12.45;;;0.00;51.90;;;;;;5028690;28;20112;-74
2023/12/02 00:53:55;;;;;;;16.35;13.10;;;0.00;51.90;;;;;;5023312;28;20033;-74
2023/12/02 00:56:21;;;;;;;18.02;12.30;;;-0.10;51.70;;;;;;5022578;28;20533;-75
2023/12/02 00:58:47;;;;;;;16.88;13.18;;;-0.10;51.70;;;;;;5032755;28;20032;-75
2023/12/02 01:01:13;;;;;;;17.15;12.05;;;-0.10;51.70;;;;;;5012408;28;20044;-74
2023/12/02 01:03:39;;;;;;;15.45;12.60;;;-0.10;51.70;;;;;;5022156;28;20026;-75
2023/12/02 01:06:05;;;;;;;14.52;12.02;;;-0.10;51.70;;;;;;5017406;28;20041;-75
2023/12/02 01:08:31;;;;;;;19.38;14.05;;;-0.10;51.70;;;;;;5027713;28;20156;-75
2023/12/02 01:10:57;;;;;;;18.33;12.80;;;-0.10;51.70;;;;;;5026077;28;20037;-75
2023/12/02 01:13:23;;;;;;;16.83;13.23;;;-0.20;51.50;;;;;;5013940;28;20425;-75
2023/12/02 01:15:49;;;;;;;16.70;13.05;;;-0.20;52.10;;;;;;5026572;28;20108;-74
2023/12/02 01:18:15;;;;;;;18.77;13.00;;;-0.10;51.70;;;;;;5037575;28;20029;-74
2023/12/02 01:20:41;;;;;;;18.90;13.60;;;-0.20;51.60;;;;;;5028550;28;20111;-75
2023/12/02 01:23:07;;;;;;;19.70;14.23;;;-0.20;51.60;;;;;;4998115;28;20036;-75
2023/12/02 01:25:33;;;;;;;22.38;15.40;;;-0.20;51.60;;;;;;5026025;28;20036;-75
2023/12/02 01:27:59;;;;;;;21.42;15.73;;;-0.20;51.60;;;;;;5019673;28;20028;-76
2023/12/02 01:30:25;;;;;;;20.50;15.40;;;-0.20;51.70;;;;;;5019608;28;20033;-76
2023/12/02 01:32:51;;;;;;;20.00;14.77;;;-0.20;51.70;;;;;;5017838;28;20025;-75
2023/12/02 01:35:16;;;;;;;25.67;17.23;;;-0.10;51.90;;;;;;5024313;28;20095;-75
2023/12/02 01:37:42;;;;;;;23.83;16.17;;;-0.10;51.90;;;;;;5023169;28;20113;-75
2023/12/02 01:40:09;;;;;;;25.00;16.02;;;-0.10;51.90;;;;;;5022406;28;20371;-76
2023/12/02 01:42:35;;;;;;;24.13;17.95;;;-0.10;51.90;;;;;;5027398;28;20041;-76
2023/12/02 01:45:01;;;;;;;28.70;18.48;;;-0.20;51.80;;;;;;5020245;28;22661;-75
2023/12/02 01:47:27;;;;;;;28.13;18.02;;;-0.10;51.90;;;;;;5028093;28;20120;-75
2023/12/02 01:49:55;;;;;;;24.70;16.35;;;-0.10;52.00;;;;;;5016513;28;20435;-75
2023/12/02 01:52:21;;;;;;;27.02;17.67;;;-0.10;52.00;;;;;;5021342;28;20038;-75
2023/12/02 01:54:47;;;;;;;26.90;17.40;;;-0.10;52.00;;;;;;5011559;28;20033;-75
2023/12/02 01:57:13;;;;;;;25.70;17.23;;;-0.10;52.00;;;;;;5020032;28;20346;-76
2023/12/02 01:59:49;;;;;;;26.35;19.30;;;-0.10;52.10;;;;;;5020517;28;20033;-76
2023/12/02 02:02:15;;;;;;;31.38;17.05;;;-0.10;52.10;;;;;;5026068;28;20061;-74
2023/12/02 02:04:43;;;;;;;23.65;16.88;;;-0.10;52.10;;;;;;5031242;28;20374;-75
2023/12/02 02:12:56;;;;;;;23.25;17.05;;;0.00;52.30;;;;;;4995295;28;20360;-79
2023/12/02 02:15:23;;;;;;;26.00;18.77;;;0.00;52.30;;;;;;4975170;28;20033;-79
2023/12/02 02:17:58;;;;;;;29.35;19.48;;;0.00;52.30;;;;;;4966405;28;20434;-75
2023/12/02 02:20:26;;;;;;;25.98;17.70;;;0.00;52.30;;;;;;4998648;28;20065;-74
2023/12/02 02:22:56;;;;;;;25.15;18.63;;;0.00;52.30;;;;;;4980612;28;20116;-76
2023/12/02 02:25:24;;;;;;;26.08;18.95;;;0.10;52.50;;;;;;4979133;28;20030;-75
2023/12/02 02:27:55;;;;;;;27.60;18.40;;;0.00;52.40;;;;;;4966870;28;20127;-77
2023/12/02 02:30:28;;;;;;;25.23;18.83;;;0.10;52.60;;;;;;4964957;28;20037;-75
2023/12/02 02:32:57;;;;;;;27.05;17.42;;;0.10;52.60;;;;;;4990402;28;20044;-76
2023/12/02 02:35:23;;;;;;;29.55;19.92;;;0.20;52.80;;;;;;5002666;28;20445;-75
2023/12/02 02:37:50;;;;;;;26.38;18.08;;;0.10;52.60;;;;;;4967037;28;20377;-73
2023/12/02 02:40:16;;;;;;;27.25;18.45;;;0.20;52.80;;;;;;5003063;28;20037;-76
2023/12/02 02:42:42;;;;;;;28.52;18.52;;;0.20;52.80;;;;;;5003694;28;20467;-75
2023/12/02 02:45:08;;;;;;;24.85;17.90;;;0.20;52.80;;;;;;4997424;28;20802;-77
2023/12/02 02:47:36;;;;;;;28.13;18.05;;;0.30;53.00;;;;;;5011448;23;20046;-86
2023/12/02 02:50:03;;;;;;;26.35;18.00;;;0.30;53.00;;;;;;5001255;28;20516;-86
2023/12/02 02:52:30;;;;;;;23.42;17.80;;;0.30;53.00;;;;;;5000440;28;20414;-86
2023/12/02 02:54:56;;;;;;;26.20;17.95;;;0.30;53.00;;;;;;4997339;28;20097;-88
2023/12/02 02:57:22;;;;;;;23.70;17.17;;;0.40;53.20;;;;;;4988097;28;20035;-85
2023/12/02 02:59:49;;;;;;;24.33;18.17;;;0.40;53.20;;;;;;4990390;28;20026;-85
2023/12/02 03:02:15;;;;;;;30.60;19.27;;;0.40;53.20;;;;;;4986774;28;20065;-86
2023/12/02 03:04:41;;;;;;;26.42;18.13;;;0.40;53.20;;;;;;4987293;28;20061;-85
2023/12/02 03:07:08;;;;;;;25.90;17.67;;;0.50;53.50;;;;;;4985138;28;20031;-84
2023/12/02 03:09:35;;;;;;;25.60;18.73;;;0.50;53.50;;;;;;4976550;28;20039;-85
2023/12/02 03:12:02;;;;;;;24.30;17.88;;;0.50;53.50;;;;;;4974884;28;20125;-84
2023/12/02 03:14:28;;;;;;;23.88;17.08;;;0.60;53.70;;;;;;4972274;28;20127;-83
2023/12/02 03:16:55;;;;;;;25.45;18.13;;;0.60;53.70;;;;;;4980821;28;20043;-84
2023/12/02 03:19:21;;;;;;;24.55;17.48;;;0.60;53.70;;;;;;4975277;28;20041;-85
2023/12/02 03:21:47;;;;;;;24.52;17.13;;;0.70;53.90;;;;;;4958053;28;20038;-85
2023/12/02 03:24:13;;;;;;;25.88;18.27;;;0.70;54.00;;;;;;4978351;28;20101;-84
2023/12/02 03:26:39;;;;;;;25.67;19.13;;;0.70;54.00;;;;;;4967932;28;20030;-85
2023/12/02 03:29:06;;;;;;;28.88;18.88;;;0.70;54.00;;;;;;4974850;28;20047;-85
2023/12/02 03:31:31;;;;;;;25.10;17.58;;;0.70;54.00;;;;;;4975314;28;20023;-83
2023/12/02 03:33:59;;;;;;;23.67;17.60;;;0.80;54.20;;;;;;4972616;28;20103;-84
2023/12/02 03:36:25;;;;;;;24.25;18.20;;;0.80;54.30;;;;;;4969203;28;20121;-82
2023/12/02 03:38:51;;;;;;;22.58;17.25;;;0.80;54.30;;;;;;4970356;28;20485;-86
2023/12/02 03:41:18;;;;;;;24.98;18.67;;;0.80;54.30;;;;;;4971174;28;20038;-84
2023/12/02 03:43:45;;;;;;;24.15;17.35;;;0.90;54.50;;;;;;4969603;28;20023;-84
2023/12/02 03:46:12;;;;;;;25.25;19.00;;;0.90;54.50;;;;;;4972410;28;20038;-84
2023/12/02 03:48:38;;;;;;;24.48;18.63;;;0.90;54.60;;;;;;4959865;28;20053;-85
2023/12/02 03:51:04;;;;;;;25.20;18.45;;;0.90;54.50;;;;;;4969521;28;20428;-86
2023/12/02 03:53:34;;;;;;;25.40;19.08;;;0.90;54.60;;;;;;4971518;28;20806;-82
2023/12/02 03:56:01;;;;;;;25.00;19.17;;;1.00;54.80;;;;;;4968935;28;20051;-83
2023/12/02 03:58:27;;;;;;;23.67;17.65;;;1.00;54.80;;;;;;4970114;28;20122;-82
2023/12/02 04:00:55;;;;;;;23.17;17.63;;;1.00;54.80;;;;;;4970294;28;20043;-82
2023/12/02 04:03:21;;;;;;;24.33;18.42;;;1.00;54.80;;;;;;4968697;28;20101;-83
2023/12/02 04:05:47;;;;;;;23.02;17.13;;;1.00;54.80;;;;;;4955661;28;20027;-83
2023/12/02 04:08:14;;;;;;;26.08;18.30;;;1.00;54.90;;;;;;4971401;28;20117;-84
2023/12/02 04:10:40;;;;;;;24.10;17.75;;;1.00;54.90;;;;;;4970289;28;20038;-86
2023/12/02 04:13:06;;;;;;;22.67;16.45;;;1.00;54.90;;;;;;4969089;28;20027;-86
2023/12/02 04:15:33;;;;;;;22.00;16.67;;;1.10;55.10;;;;;;4972771;28;20047;-85
2023/12/02 04:18:01;;;;;;;25.65;19.02;;;1.10;55.10;;;;;;4969331;28;20851;-83
2023/12/02 04:20:28;;;;;;;22.33;17.73;;;1.10;55.10;;;;;;4970278;28;20133;-85
2023/12/02 04:22:54;;;;;;;22.90;17.05;;;1.10;55.10;;;;;;4976412;28;20117;-83
2023/12/02 04:25:19;;;;;;;22.58;16.35;;;1.10;55.20;;;;;;4938124;28;20123;-82
2023/12/02 04:27:46;;;;;;;23.85;17.80;;;1.10;55.20;;;;;;4971847;28;20094;-83
2023/12/02 04:30:12;;;;;;;21.55;16.73;;;1.10;55.20;;;;;;4968039;28;20032;-83
2023/12/02 04:32:39;;;;;;;24.38;17.90;;;1.20;55.50;;;;;;4971066;28;20691;-84
2023/12/02 04:35:05;;;;;;;21.83;17.33;;;1.20;55.50;;;;;;4970750;28;20046;-84
2023/12/02 04:37:34;;;;;;;23.73;19.48;;;1.20;55.50;;;;;;4966555;28;20034;-81
2023/12/02 04:40:04;;;;;;;20.42;15.63;;;1.20;55.50;;;;;;4989712;28;20014;-85
2023/12/02 04:42:31;;;;;;;23.23;17.42;;;1.20;55.50;;;;;;4971891;28;20041;-82
2023/12/02 04:44:59;;;;;;;22.75;17.92;;;1.20;55.50;;;;;;4983165;28;20034;-85
2023/12/02 04:47:28;;;;;;;21.25;16.33;;;1.20;55.50;;;;;;4968380;28;20050;-82
2023/12/02 04:49:54;;;;;;;23.35;16.50;;;1.20;55.50;;;;;;4962555;28;20116;-86
2023/12/02 04:52:24;;;;;;;21.77;16.00;;;1.20;55.50;;;;;;4950133;28;20082;-84
2023/12/02 04:54:50;;;;;;;18.50;14.65;;;1.20;56.00;;;;;;4965200;28;20027;-86
2023/12/02 04:57:16;;;;;;;21.10;15.80;;;1.30;55.70;;;;;;4987743;28;20031;-87
2023/12/02 04:59:43;;;;;;;20.63;16.48;;;1.30;55.70;;;;;;4955485;28;20110;-85
2023/12/02 05:02:09;;;;;;;19.05;15.15;;;1.30;55.70;;;;;;4956463;28;20047;-85
2023/12/02 05:04:37;;;;;;;18.10;14.32;;;1.30;55.70;;;;;;4962989;28;20066;-86
2023/12/02 05:07:07;;;;;;;20.67;16.83;;;1.30;55.70;;;;;;4979789;28;20101;-86
2023/12/02 05:09:34;;;;;;;19.30;15.57;;;1.30;55.70;;;;;;4967163;28;20035;-87
2023/12/02 05:12:01;;;;;;;20.05;15.57;;;1.30;55.70;;;;;;4971027;28;20047;-82
2023/12/02 05:14:28;;;;;;;18.95;15.32;;;1.30;55.80;;;;;;4986186;28;20034;-85
2023/12/02 05:16:54;;;;;;;18.75;15.23;;;1.30;55.80;;;;;;4966816;28;20045;-84
2023/12/02 05:19:20;;;;;;;20.35;14.73;;;1.30;55.80;;;;;;4969594;28;20750;-85
2023/12/02 05:21:47;;;;;;;18.88;14.90;;;1.30;55.80;;;;;;4962365;28;20374;-86
2023/12/02 05:24:13;;;;;;;19.75;15.13;;;1.30;55.90;;;;;;4965264;28;20057;-84
2023/12/02 05:26:39;;;;;;;17.60;14.27;;;1.30;55.90;;;;;;4962562;28;20384;-83
2023/12/02 05:29:05;;;;;;;19.45;15.23;;;1.30;55.90;;;;;;4970714;28;20042;-87
2023/12/02 05:31:32;;;;;;;19.83;15.75;;;1.30;55.90;;;;;;4962707;28;20154;-84
2023/12/02 05:33:58;;;;;;;17.95;15.15;;;1.30;55.90;;;;;;4983331;28;20035;-82
2023/12/02 05:36:25;;;;;;;18.13;14.13;;;1.30;56.00;;;;;;4971999;28;20038;-81
2023/12/02 05:38:52;;;;;;;18.60;14.38;;;1.30;56.00;;;;;;4982377;28;20023;-82
2023/12/02 05:41:18;;;;;;;21.35;14.35;;;1.30;56.00;;;;;;4970426;28;20514;-83
2023/12/02 05:43:44;;;;;;;18.00;14.48;;;1.30;56.00;;;;;;4955071;28;20030;-82
2023/12/02 05:46:17;;;;;;;17.67;14.02;;;1.30;56.00;;;;;;4973392;28;20070;-86
2023/12/02 05:48:44;;;;;;;17.38;13.95;;;1.30;56.00;;;;;;4956393;28;20046;-85
2023/12/02 05:51:12;;;;;;;16.88;13.45;;;1.30;56.00;;;;;;4970170;28;20042;-85
2023/12/02 05:53:39;;;;;;;17.30;15.35;;;1.30;56.00;;;;;;4961433;28;20060;-85
2023/12/02 05:56:08;;;;;;;19.70;14.07;;;1.30;56.00;;;;;;4955058;28;20081;-87
2023/12/02 05:58:35;;;;;;;16.58;13.65;;;1.40;56.20;;;;;;4978044;28;20031;-86
2023/12/02 06:01:03;;;;;;;16.67;13.93;;;1.30;56.00;;;;;;4974122;28;20128;-83
2023/12/02 06:03:29;;;;;;;17.23;13.40;;;1.30;56.00;;;;;;4986997;28;20019;-82
2023/12/02 06:06:00;;;;;;;15.07;13.02;;;1.30;56.00;;;;;;4982871;28;20015;-83
2023/12/02 06:08:29;;;;;;;16.65;13.40;;;1.30;56.00;;;;;;4975508;28;20022;-84
2023/12/02 06:11:21;;;;;;;15.68;12.98;;;1.30;56.00;;;;;;4990520;28;20035;-83
2023/12/02 06:13:52;;;;;;;15.00;12.60;;;1.30;56.00;;;;;;4993073;28;20038;-84
2023/12/02 06:16:44;;;;;;;14.45;12.63;;;1.30;56.00;;;;;;4986685;28;20130;-85
2023/12/02 06:19:35;;;;;;;16.25;12.65;;;1.30;56.00;;;;;;4939829;28;20117;-86
2023/12/02 06:22:02;;;;;;;14.90;12.15;;;1.30;56.00;;;;;;4970135;28;20039;-84
2023/12/02 06:24:28;;;;;;;15.23;13.05;;;1.30;56.00;;;;;;4987640;28;20062;-86
2023/12/02 06:26:55;;;;;;;16.75;13.88;;;1.30;56.00;;;;;;4979035;28;20035;-87
2023/12/02 06:29:21;;;;;;;15.38;13.68;;;1.20;55.80;;;;;;4988768;28;20057;-87
2023/12/02 06:31:49;;;;;;;17.05;13.45;;;1.30;56.10;;;;;;4973960;28;20034;-87
2023/12/02 06:34:18;;;;;;;16.33;13.63;;;1.30;56.10;;;;;;4958046;28;20027;-88
2023/12/02 06:36:47;;;;;;;15.73;13.27;;;1.20;55.90;;;;;;4968375;28;20701;-89
2023/12/02 06:39:13;;;;;;;15.93;13.50;;;1.30;56.10;;;;;;4971255;28;20081;-89
2023/12/02 06:41:41;;;;;;;17.98;13.85;;;1.20;55.90;;;;;;4982061;28;20027;-88
2023/12/02 06:44:08;;;;;;;17.25;14.70;;;1.30;56.10;;;;;;4964275;28;20046;-89
2023/12/02 06:46:35;;;;;;;17.27;13.80;;;1.30;56.10;;;;;;4968870;28;20035;-84
2023/12/02 06:49:01;;;;;;;17.05;14.70;;;1.30;56.20;;;;;;4986814;28;20042;-84
2023/12/02 06:51:29;;;;;;;17.70;14.07;;;1.20;55.90;;;;;;4956696;28;20129;-84
2023/12/02 06:53:56;;;;;;;17.73;14.38;;;1.30;56.20;;;;;;4937072;28;20552;-86
2023/12/02 06:56:23;;;;;;;17.42;14.45;;;1.20;56.00;;;;;;4960490;28;20039;-86
2023/12/02 06:58:52;;;;;;;17.38;14.57;;;1.30;56.10;;;;;;4966964;28;20082;-86
2023/12/02 07:01:26;;;;;;;16.85;13.30;;;1.30;56.10;;;;;;4949037;28;20182;-85
2023/12/02 07:03:54;;;;;;;17.42;15.00;;;1.30;56.70;;;;;;4982929;28;20504;-85
2023/12/02 07:06:21;;;;;;;20.38;14.13;;;1.30;56.20;;;;;;4969737;28;20151;-87
2023/12/02 07:08:51;;;;;;;18.50;15.10;;;1.30;56.20;;;;;;4975693;28;20623;-88
2023/12/02 07:11:22;;;;;;;20.98;15.43;;;1.30;56.20;;;;;;4967553;28;20038;-90
2023/12/02 07:13:48;;;;;;;17.45;14.57;;;1.30;56.20;;;;;;4954616;28;20041;-88
2023/12/02 07:16:14;;;;;;;18.88;15.40;;;1.30;56.20;;;;;;4967405;28;20043;-90
2023/12/02 07:18:40;;;;;;;23.63;15.55;;;1.30;56.20;;;;;;4976066;28;20034;-88
2023/12/02 07:21:08;;;;;;;19.23;14.68;;;1.30;56.20;;;;;;4975037;28;20218;-87
2023/12/02 07:23:36;;;;;;;17.35;14.13;;;1.30;56.30;;;;;;4971241;28;20094;-90
2023/12/02 07:26:02;;;;;;;19.98;15.23;;;1.20;56.10;;;;;;4974473;28;20100;-89
2023/12/02 07:28:28;;;;;;;19.98;15.45;;;1.30;56.30;;;;;;4975133;28;20438;-89
2023/12/02 07:30:57;;;;;;;22.73;17.60;;;1.20;56.10;;;;;;4950463;28;20033;-89
2023/12/02 07:33:25;;;;;;;21.65;15.88;;;1.30;56.30;;;;;;4978638;28;20069;-85
2023/12/02 07:35:54;;;;;;;21.05;16.80;;;1.30;56.40;;;;;;4987133;28;20047;-86
2023/12/02 07:38:20;;;;;;;22.13;16.67;;;1.30;56.40;;;;;;4973491;28;20034;-85
2023/12/02 07:40:46;;;;;;;36.15;18.65;;;1.30;56.50;;;;;;4976533;28;20221;-90
2023/12/02 07:43:12;;;;;;;30.33;17.10;;;1.30;56.50;;;;;;4999792;28;20039;-90
2023/12/02 07:45:47;;;;;;;27.08;16.83;;;1.40;57.00;;;;;;4983912;28;20027;-92
2023/12/02 07:48:17;;;;;;;26.58;18.55;;;1.60;57.50;;;;;;4971129;28;20105;-91
2023/12/02 07:50:44;;;;;;;26.42;18.92;;;1.70;57.50;;;;;;4954010;28;20044;-87
2023/12/02 07:53:10;;;;;;;24.77;18.05;;;1.80;57.50;;;;;;4991656;28;20042;-91
2023/12/02 07:55:36;;;;;;;25.50;18.58;;;1.90;57.60;;;;;;4977866;28;20118;-87
2023/12/02 07:58:02;;;;;;;25.08;17.13;;;1.90;57.60;;;;;;4967852;28;20042;-86
2023/12/02 08:00:31;;;;;;;21.80;16.13;;;1.90;57.60;;;;;;4955223;28;20054;-88
2023/12/02 08:03:07;;;;;;;21.50;16.23;;;1.90;57.70;;;;;;4984750;28;20038;-87
2023/12/02 08:05:34;;;;;;;23.90;15.82;;;1.90;57.70;;;;;;4977940;28;20035;-87
2023/12/02 08:08:01;;;;;;;22.33;16.40;;;1.90;57.80;;;;;;4975581;28;20046;-87
2023/12/02 08:10:34;;;;;;;20.45;16.08;;;1.90;57.80;;;;;;5000255;28;20158;-86
2023/12/02 08:13:04;;;;;;;24.60;14.68;;;1.90;57.90;;;;;;5002144;28;20036;-91
2023/12/02 08:15:30;;;;;;;25.05;15.77;;;1.90;57.90;;;;;;4997071;28;20041;-86
2023/12/02 08:17:56;;;;;;;25.90;17.02;;;1.80;57.80;;;;;;4979064;28;20038;-85
2023/12/02 08:20:22;;;;;;;24.30;16.40;;;1.90;58.20;;;;;;4985268;28;20075;-88
2023/12/02 08:22:48;;;;;;;18.90;15.82;;;1.90;58.20;;;;;;4989124;28;20041;-89
2023/12/02 08:25:14;;;;;;;23.58;17.25;;;1.90;58.10;;;;;;4988030;28;20030;-92
2023/12/02 08:27:41;;;;;;;23.45;18.35;;;1.90;58.10;;;;;;4991635;28;20040;-92
2023/12/02 08:30:09;;;;;;;23.35;16.55;;;1.90;58.10;;;;;;4982841;28;20025;-89
2023/12/02 08:32:35;;;;;;;22.15;15.50;;;1.90;58.10;;;;;;4979071;28;20070;-90
2023/12/02 08:35:04;;;;;;;23.02;15.57;;;1.90;58.20;;;;;;4972726;28;20080;-88
2023/12/02 08:37:32;;;;;;;19.90;15.82;;;1.90;58.20;;;;;;4987414;28;20049;-88
2023/12/02 08:40:01;;;;;;;16.63;14.40;;;1.90;58.20;;;;;;4984645;28;20089;-88
2023/12/02 08:42:27;;;;;;;17.55;14.48;;;1.90;58.20;;;;;;4987131;28;20034;-90
2023/12/02 08:44:55;;;;;;;17.63;13.98;;;1.90;58.20;;;;;;4989181;28;20030;-89
2023/12/02 08:47:21;;;;;;;18.63;14.40;;;1.90;58.20;;;;;;4988999;28;20081;-87
2023/12/02 08:49:47;;;;;;;17.50;14.52;;;1.90;58.20;;;;;;4964373;28;20110;-86
2023/12/02 08:52:17;;;;;;;17.52;14.50;;;1.90;58.20;;;;;;4983799;28;20510;-86
2023/12/02 08:54:43;;;;;;;17.75;14.30;;;1.90;58.20;;;;;;4966852;28;20030;-87
2023/12/02 08:57:09;;;;;;;19.73;14.90;;;1.90;58.20;;;;;;4987004;28;20030;-87
2023/12/02 08:59:36;;;;;;;17.60;14.38;;;1.90;58.20;;;;;;4985845;28;20027;-88
2023/12/02 09:02:05;;;;;;;18.67;14.55;;;1.90;58.20;;;;;;4985425;28;20042;-89
2023/12/02 09:04:32;;;;;;;18.25;14.25;;;1.90;58.10;;;;;;4982237;28;20551;-87
2023/12/02 09:07:01;;;;;;;18.33;13.98;;;1.90;58.10;;;;;;4967085;28;20056;-88
2023/12/02 09:09:28;;;;;;;18.40;14.90;;;1.90;58.10;;;;;;4982019;28;20034;-87
2023/12/02 09:11:54;;;;;;;18.05;14.80;;;1.90;58.10;;;;;;4985386;28;20037;-88
2023/12/02 09:14:20;;;;;;;18.83;14.85;;;1.90;58.00;;;;;;4984449;28;20113;-88
2023/12/02 09:16:47;;;;;;;17.15;13.85;;;1.90;58.00;;;;;;4986536;28;20077;-88
2023/12/02 09:19:46;;;;;;;16.73;14.88;;;2.00;58.10;;;;;;4989730;28;20037;-88
2023/12/02 09:22:43;;;;;;;17.08;14.95;;;2.00;58.10;;;;;;4987103;28;20030;-85
2023/12/02 09:25:24;;;;;;;17.80;14.48;;;2.00;58.00;;;;;;4978357;28;20041;-85
2023/12/02 09:28:01;;;;;;;18.30;14.27;;;2.00;58.00;;;;;;4966818;28;20093;-86
2023/12/02 09:30:28;;;;;;;17.02;13.68;;;2.00;57.90;;;;;;4978482;28;20452;-87
2023/12/02 09:32:54;;;;;;;16.83;14.02;;;2.10;58.10;;;;;;4969783;28;20034;-86
2023/12/02 09:35:24;;;;;;;18.38;14.43;;;2.10;58.10;;;;;;4990452;28;20038;-88
2023/12/02 09:37:55;;;;;;;16.15;13.80;;;2.10;58.10;;;;;;4987569;28;20030;-88
2023/12/02 09:40:28;;;;;;;15.05;13.25;;;2.10;58.00;;;;;;4985651;28;20095;-86
2023/12/02 09:43:15;;;;;;;19.17;14.68;;;2.10;58.10;;;;;;4969711;28;20042;-86
2023/12/02 09:45:53;;;;;;;16.10;13.18;;;2.20;58.20;;;;;;4988601;28;20042;-87
2023/12/02 09:48:23;;;;;;;16.70;13.57;;;2.20;58.10;;;;;;5011216;28;20034;-85
2023/12/02 09:51:08;;;;;;;17.05;13.75;;;2.20;58.00;;;;;;5004333;28;20040;-84
2023/12/02 09:53:46;;;;;;;16.58;13.27;;;2.20;58.00;;;;;;5001839;28;20033;-85
2023/12/02 09:56:20;;;;;;;16.55;14.77;;;2.30;58.20;;;;;;5003361;28;20415;-85
2023/12/02 09:58:47;;;;;;;17.65;13.65;;;2.30;58.10;;;;;;5003160;28;20029;-84
2023/12/02 10:01:42;;;;;;;18.30;14.75;;;2.40;58.20;;;;;;5001800;28;20029;-83
2023/12/02 10:04:30;;;;;;;18.48;14.65;;;2.40;58.20;;;;;;4981149;28;20063;-85
2023/12/02 10:07:10;;;;;;;17.98;14.75;;;2.40;58.10;;;;;;4980869;28;20033;-86
2023/12/02 10:09:53;;;;;;;17.15;13.85;;;2.50;58.30;;;;;;4986088;28;20336;-91
2023/12/02 10:12:36;;;;;;;20.42;15.50;;;2.50;58.20;;;;;;4981099;28;20559;-85
2023/12/02 10:15:08;;;;;;;17.75;14.30;;;2.50;58.20;;;;;;4970767;28;20037;-86
2023/12/02 10:17:52;;;;;;;18.17;14.60;;;2.50;58.00;;;;;;4999938;28;20647;-86
2023/12/02 10:20:27;;;;;;;19.15;14.32;;;2.60;58.20;;;;;;4985303;28;20040;-84
2023/12/02 10:22:59;;;;;;;16.00;14.00;;;2.60;58.20;;;;;;4985979;28;20582;-85
2023/12/02 10:25:32;;;;;;;17.50;14.50;;;2.70;58.40;;;;;;5003864;28;20856;-85
2023/12/02 10:28:12;;;;;;;17.13;14.55;;;2.70;58.30;;;;;;5004601;28;20083;-86
2023/12/02 10:30:50;;;;;;;16.35;13.85;;;2.80;58.40;;;;;;4981975;28;20451;-85
2023/12/02 10:33:27;;;;;;;16.58;14.00;;;2.80;58.40;;;;;;4999561;28;20042;-85
2023/12/02 10:36:04;;;;;;;19.00;15.13;;;2.90;58.50;;;;;;5003434;28;20495;-83
2023/12/02 10:38:42;;;;;;;15.45;13.48;;;2.90;58.30;;;;;;5003589;28;20330;-85
2023/12/02 10:41:24;;;;;;;17.13;14.73;;;3.00;58.50;;;;;;5002156;28;20079;-85
2023/12/02 10:43:56;;;;;;;16.35;14.27;;;3.00;58.40;;;;;;4999395;28;20048;-86
2023/12/02 10:46:23;;;;;;;18.48;15.18;;;3.10;58.50;;;;;;5004358;28;20030;-87
2023/12/02 10:48:54;;;;;;;16.95;15.15;;;3.10;58.50;;;;;;5004785;28;20110;-83
2023/12/02 10:51:23;;;;;;;17.83;13.63;;;3.10;58.30;;;;;;5003646;28;20092;-91
2023/12/02 10:53:51;;;;;;;16.85;14.35;;;3.20;58.50;;;;;;5015137;28;20091;-87
2023/12/02 10:56:23;;;;;;;14.45;12.82;;;3.20;58.40;;;;;;4995239;28;20060;-85
2023/12/02 10:58:51;;;;;;;16.65;13.82;;;3.30;58.50;;;;;;5012612;28;20482;-87
2023/12/02 11:01:36;;;;;;;14.45;12.68;;;3.30;58.50;;;;;;4995900;28;20065;-90
2023/12/02 11:04:25;;;;;;;14.57;12.82;;;3.40;58.50;;;;;;5009483;28;20030;-88
2023/12/02 11:07:03;;;;;;;14.65;13.10;;;3.50;58.60;;;;;;5008643;28;20046;-90
2023/12/02 11:10:03;;;;;;;16.48;12.77;;;3.50;58.50;;;;;;5012860;28;20306;-93
2023/12/02 11:12:46;;;;;;;15.20;12.85;;;3.60;58.60;;;;;;4993433;28;20456;-90
2023/12/02 11:15:13;;;;;;;;;;;3.60;58.50;;;;;;5006194;28;20426;-88
2023/12/02 11:18:00;;;;;;;14.93;12.82;;;3.60;58.40;;;;;;5006254;28;19917;-90
2023/12/02 11:20:30;;;;;;;16.17;12.77;;;3.70;58.50;;;;;;4991479;28;20034;-89
2023/12/02 11:23:30;;;;;;;13.98;12.57;;;3.70;58.50;;;;;;4992837;28;20433;-88
2023/12/02 11:26:04;;;;;;;13.45;12.05;;;3.70;58.40;;;;;;5003720;28;20031;-90
2023/12/02 11:28:32;;;;;;;13.90;11.85;;;3.70;58.40;;;;;;5006717;28;20062;-89
2023/12/02 11:31:25;;;;;;;14.38;12.40;;;3.80;58.50;;;;;;5010045;28;20014;-89
2023/12/02 11:34:04;;;;;;;13.88;12.20;;;3.80;58.50;;;;;;5002241;28;20038;-87
2023/12/02 11:36:51;;;;;;;14.80;12.52;;;3.80;58.50;;;;;;5011258;28;20097;-85
2023/12/02 11:39:36;;;;;;;12.68;10.88;;;3.80;58.40;;;;;;5007842;28;20291;-89
2023/12/02 11:42:17;;;;;;;13.88;11.73;;;3.80;58.40;;;;;;5019299;28;20056;-86
2023/12/02 11:45:13;;;;;;;13.40;12.00;;;4.00;58.80;;;;;;5007874;28;20041;-89
2023/12/02 11:48:11;;;;;;;13.10;11.70;;;4.00;58.60;;;;;;4997350;28;20131;-86
2023/12/02 11:51:20;;;;;;;14.63;12.75;;;4.10;58.70;;;;;;5007239;28;20126;-87
2023/12/02 11:54:11;;;;;;;14.85;12.30;;;4.10;58.60;;;;;;5004238;28;20022;-87
2023/12/02 11:56:51;;;;;;;14.77;12.55;;;4.20;58.60;;;;;;5005314;28;20076;-88
2023/12/02 11:59:17;;;;;;;14.52;12.95;;;4.20;58.50;;;;;;4993987;28;20316;-89
2023/12/02 12:02:12;;;;;;;13.90;12.13;;;4.30;58.70;;;;;;4982030;28;20046;-88
2023/12/02 12:05:31;;;;;;;14.75;12.45;;;4.30;58.60;;;;;;4967319;28;20071;-87
2023/12/02 12:08:08;;;;;;;12.98;11.57;;;4.30;58.60;;;;;;4931757;28;20117;-88
2023/12/02 12:10:38;;;;;;;14.32;11.90;;;4.30;58.50;;;;;;4991664;28;20110;-90
2023/12/02 12:13:08;;;;;;;14.82;13.20;;;4.30;58.50;;;;;;4978358;28;20030;-92
2023/12/02 12:15:38;;;;;;;15.35;12.90;;;4.30;58.50;;;;;;4978019;28;20554;-89
2023/12/02 12:18:06;;;;;;;13.90;12.30;;;4.30;58.50;;;;;;4961871;28;20030;-85
2023/12/02 12:20:32;;;;;;;18.35;13.40;;;4.30;58.50;;;;;;4994359;28;20038;-87
2023/12/02 12:23:00;;;;;;;17.35;14.18;;;4.40;59.00;;;;;;4993684;28;20430;-86
2023/12/02 12:25:31;;;;;;;15.98;13.43;;;4.40;58.90;;;;;;4990878;28;20035;-86
2023/12/02 12:28:04;;;;;;;15.50;13.20;;;4.50;59.00;;;;;;4954720;28;20134;-89
2023/12/02 12:30:46;;;;;;;14.88;12.82;;;4.60;59.00;;;;;;4988982;28;20049;-89
2023/12/02 12:33:17;;;;;;;16.95;13.40;;;4.70;59.10;;;;;;4968735;28;20030;-89
2023/12/02 12:35:44;;;;;;;15.45;13.68;;;4.70;58.90;;;;;;4995906;28;20367;-89
2023/12/02 12:38:11;;;;;;;17.15;14.02;;;4.70;58.80;;;;;;4990665;28;20037;-87
2023/12/02 12:40:45;;;;;;;16.40;14.02;;;4.80;59.00;;;;;;5017514;28;20034;-93
2023/12/02 12:43:12;;;;;;;16.25;14.30;;;4.80;58.90;;;;;;5006372;28;20022;-90
2023/12/02 12:45:39;;;;;;;15.05;13.38;;;4.80;58.90;;;;;;5014500;28;20195;-89
2023/12/02 12:48:07;;;;;;;16.30;14.32;;;4.80;58.80;;;;;;5026684;28;20041;-90
2023/12/02 12:50:37;;;;;;;16.98;14.00;;;4.80;58.80;;;;;;5026891;28;20065;-88
2023/12/02 12:53:12;;;;;;;15.93;14.18;;;4.80;58.80;;;;;;5013716;28;20045;-89
2023/12/02 12:55:46;;;;;;;13.18;11.77;;;4.80;58.70;;;;;;5008613;28;20521;-91